Huvudsida
METAR-TAF:

METAR-TAF

Flygplatser :

Jönköping, Sverige

Jönköping Airport

latitud: 57-46N, longitud: 014-05E, höjd: 226 m

Aktuellt väderrapport

Denna rapport gjordes för 5 minuter sedan, klockan 18:20 UTC
Vind 2 kt från sydost
Temperatur 10°C
Fuktighet 53%
Tryck 1012 hPa
Sikt 10 km eller mer
Inga moln under 1 500 m eller inga cumulonimbus

METAR: ESGJ 221820Z 13002KT CAVOK 10/01 Q1012

Tid: 20:25 (18:25 UTC)

Väderprognos

Denna rapport gjordes för 55 minuter sedan, klockan 17:30 UTC
Prognos gäller från 22 kl. 18 UTC till 22 kl. 21 UTC
Vind 3 kt från syd
Sikt 10 km eller mer
Inga moln under 1 500 m eller inga cumulonimbus

TAF: ESGJ 221730Z 2218/2221 17003KT CAVOK

Aktuella väderrapporter och prognoser från 4000 flygplatser (METAR- och TAF-rapporter).

De tillgängliga stationerna syns som gula och röda prickar på kartan.

För musen över prickarna för att se namnen på stationerna.

Klicka sedan för att få väderrapporter och prognoser.

För att ändra kartan: Klicka på de gröna knapparna med ett svart kors på för att zooma in; den gröna knappen med ett streck på för att zooma ut; eller på de gröna pilarna för angränsande kartor.


METAR-TAF: